MUC weather

Munich Airport
Munich, Bavaria, Germany

Public forecast

Using degrees Celsius for public forecast. Weather courtesy of forecast.io.

METAR (pilot weather report)

Retrieved 2018/01/22 06:20 UTC (9 minutes ago):

EDDM 220620Z 09008KT 1200 R08L/P2000N R08R/P2000N SN SCT004 OVC015 M02/M03 Q1011 R08R/290295 R08L/590693 BECMG 2500 -SN

TAF (pilot weather forecast)

Retrieved 2018/01/22 06:27 UTC (2 minutes ago):

TAF EDDM 220500Z 2206/2312 10005KT 3000 -SN OVC007 TEMPO 2206/2207 1200 SN VV004 BECMG 2209/2211 24007KT 6000 TEMPO 2209/2211 -FZRA BECMG 2211/2214 BKN015 BECMG 2218/2221 BKN012 TEMPO 2220/2308 3000 -DZ OVC007 BECMG 2310/2312 BKN015